createdAt,value
2022-11-03T00:01:40.434Z,101040.63
2022-11-03T00:04:08.854Z,101051.97
2022-11-03T00:06:35.541Z,101035.38
2022-11-03T00:09:05.450Z,101041.69
2022-11-03T00:11:34.262Z,101034.66
2022-11-03T00:14:01.346Z,101037.28
2022-11-03T00:16:28.014Z,101026.88
2022-11-03T00:18:54.914Z,101029.09
2022-11-03T00:21:21.564Z,101019.00
2022-11-03T00:23:48.726Z,101007.97
2022-11-03T00:26:26.328Z,101011.28
2022-11-03T00:28:55.888Z,101008.47
2022-11-03T00:31:26.147Z,101002.47
2022-11-03T00:33:53.487Z,100999.09
2022-11-03T00:36:22.356Z,101001.03
2022-11-03T00:38:49.339Z,100986.91
2022-11-03T00:41:17.324Z,100987.13
2022-11-03T00:43:43.898Z,100988.03
2022-11-03T00:46:10.800Z,100985.19
2022-11-03T00:48:38.226Z,100967.69
2022-11-03T00:51:11.989Z,100985.44
2022-11-03T00:53:42.298Z,100982.63
2022-11-03T00:56:19.710Z,100987.00
2022-11-03T00:58:46.746Z,100985.53
2022-11-03T01:01:16.862Z,100982.69
2022-11-03T01:04:05.974Z,100983.69
2022-11-03T01:06:50.578Z,100981.75
2022-11-03T01:09:19.824Z,100980.97
2022-11-03T01:12:08.261Z,100982.91
2022-11-03T01:14:46.752Z,100978.47
2022-11-03T01:17:15.430Z,100969.78
2022-11-03T01:19:42.104Z,100967.09
2022-11-03T01:22:10.867Z,100977.50
2022-11-03T01:24:38.425Z,100965.38
2022-11-03T01:27:04.977Z,100971.53
2022-11-03T01:29:31.559Z,100969.84
2022-11-03T01:31:58.759Z,100981.00
2022-11-03T01:34:25.346Z,100962.66
2022-11-03T01:36:52.015Z,100964.03
2022-11-03T01:39:19.829Z,100959.53
2022-11-03T01:41:49.092Z,100953.47
2022-11-03T01:44:15.747Z,100963.84
2022-11-03T01:46:44.330Z,100945.56
2022-11-03T01:49:31.585Z,100950.25
2022-11-03T01:52:16.504Z,100952.81
2022-11-03T01:54:45.999Z,100941.50
2022-11-03T01:57:18.064Z,100942.22
2022-11-03T01:59:46.550Z,100943.25
2022-11-03T02:02:18.882Z,100931.97
2022-11-03T02:04:45.760Z,100922.41
2022-11-03T02:07:25.039Z,100929.53
2022-11-03T02:09:51.654Z,100913.63
2022-11-03T02:12:21.223Z,100907.00
2022-11-03T02:14:55.807Z,100908.56
2022-11-03T02:17:24.084Z,100890.38
2022-11-03T02:19:57.780Z,100895.66
2022-11-03T02:22:35.979Z,100886.28
2022-11-03T02:25:08.185Z,100876.75
2022-11-03T02:27:34.958Z,100877.78
2022-11-03T02:30:01.677Z,100869.06
2022-11-03T02:32:54.367Z,100852.34
2022-11-03T02:35:40.930Z,100867.38
2022-11-03T02:38:13.183Z,100862.13
2022-11-03T02:40:46.165Z,100854.34
2022-11-03T02:43:16.192Z,100855.91
2022-11-03T02:45:45.123Z,100844.00
2022-11-03T02:48:12.130Z,100839.56
2022-11-03T02:50:38.776Z,100828.44
2022-11-03T02:53:05.736Z,100841.19
2022-11-03T02:55:33.136Z,100834.41
2022-11-03T02:58:23.239Z,100830.88
2022-11-03T03:00:59.236Z,100831.16
2022-11-03T03:03:32.417Z,100834.84
2022-11-03T03:06:30.473Z,100834.72
2022-11-03T03:09:02.859Z,100828.59
2022-11-03T03:11:39.279Z,100823.47
2022-11-03T03:14:29.726Z,100819.09
2022-11-03T03:16:56.269Z,100821.53
2022-11-03T03:19:28.502Z,100807.78
2022-11-03T03:21:57.972Z,100814.78
2022-11-03T03:24:30.503Z,100803.63
2022-11-03T03:27:01.739Z,100808.84
2022-11-03T03:29:39.613Z,100805.06
2022-11-03T03:32:09.869Z,100792.06
2022-11-03T03:34:41.813Z,100801.69
2022-11-03T03:37:11.836Z,100796.50
2022-11-03T03:39:43.554Z,100794.94
2022-11-03T03:42:11.720Z,100784.44
2022-11-03T03:44:41.377Z,100785.28
2022-11-03T03:47:13.567Z,100794.72
2022-11-03T03:49:40.675Z,100787.72
2022-11-03T03:52:09.386Z,100786.84
2022-11-03T03:54:36.821Z,100782.44
2022-11-03T03:57:05.708Z,100786.75
2022-11-03T03:59:32.642Z,100784.28
2022-11-03T04:01:59.486Z,100780.03
2022-11-03T04:04:26.252Z,100783.38
2022-11-03T04:07:12.868Z,100772.13
2022-11-03T04:09:39.851Z,100764.19
2022-11-03T04:12:27.110Z,100778.16
2022-11-03T04:15:13.085Z,100767.69
2022-11-03T04:18:04.788Z,100764.91
2022-11-03T04:20:51.741Z,100761.66
2022-11-03T04:23:19.033Z,100766.78
2022-11-03T04:25:52.128Z,100763.53
2022-11-03T04:28:19.053Z,100760.84
2022-11-03T04:30:45.634Z,100746.19
2022-11-03T04:33:18.385Z,100759.13
2022-11-03T04:35:46.264Z,100757.03
2022-11-03T04:38:16.117Z,100750.44
2022-11-03T04:40:53.626Z,100751.44
2022-11-03T04:43:23.919Z,100743.72
2022-11-03T04:45:50.792Z,100750.53
2022-11-03T04:48:24.669Z,100742.88
2022-11-03T04:50:57.847Z,100739.44
2022-11-03T04:53:27.993Z,100740.44
2022-11-03T04:55:54.964Z,100725.50
2022-11-03T04:58:34.512Z,100736.03
2022-11-03T05:01:02.821Z,100721.88
2022-11-03T05:03:34.877Z,100722.06
2022-11-03T05:06:18.226Z,100714.94
2022-11-03T05:08:50.797Z,100721.88
2022-11-03T05:11:29.237Z,100718.19
2022-11-03T05:14:00.458Z,100712.34
2022-11-03T05:16:28.310Z,100699.38
2022-11-03T05:18:55.272Z,100701.38
2022-11-03T05:21:25.191Z,100696.16
2022-11-03T05:23:56.186Z,100702.22
2022-11-03T05:26:26.473Z,100689.94
2022-11-03T05:28:59.782Z,100686.53
2022-11-03T05:31:28.694Z,100684.06
2022-11-03T05:34:01.704Z,100688.53
2022-11-03T05:36:31.016Z,100681.50
2022-11-03T05:39:22.709Z,100683.22
2022-11-03T05:41:49.272Z,100666.88
2022-11-03T05:44:36.889Z,100671.25
2022-11-03T05:47:13.305Z,100665.22
2022-11-03T05:49:40.572Z,100666.94
2022-11-03T05:52:17.240Z,100662.91
2022-11-03T05:54:44.027Z,100658.41
2022-11-03T05:57:13.952Z,100667.19
2022-11-03T05:59:40.894Z,100663.56
2022-11-03T06:02:40.272Z,100668.72
2022-11-03T06:05:20.851Z,100662.75
2022-11-03T06:07:49.123Z,100647.09
2022-11-03T06:10:22.848Z,100665.25
2022-11-03T06:12:49.745Z,100648.81
2022-11-03T06:15:29.318Z,100647.22
2022-11-03T06:17:56.322Z,100651.44
2022-11-03T06:20:23.224Z,100653.13
2022-11-03T06:22:52.612Z,100648.13
2022-11-03T06:25:23.809Z,100648.94
2022-11-03T06:27:51.055Z,100640.31
2022-11-03T06:30:30.248Z,100637.75
2022-11-03T06:33:00.315Z,100633.41
2022-11-03T06:35:27.259Z,100630.66
2022-11-03T06:37:56.277Z,100634.03
2022-11-03T06:40:24.655Z,100633.16
2022-11-03T06:42:54.160Z,100625.41
2022-11-03T06:45:23.844Z,100619.56
2022-11-03T06:47:51.045Z,100623.75
2022-11-03T06:50:32.763Z,100609.97
2022-11-03T06:53:06.476Z,100616.22
2022-11-03T06:55:35.723Z,100615.91
2022-11-03T06:58:15.849Z,100609.03
2022-11-03T07:00:48.927Z,100608.97
2022-11-03T07:03:33.553Z,100601.28
2022-11-03T07:06:15.606Z,100590.94
2022-11-03T07:08:47.775Z,100599.75
2022-11-03T07:11:14.293Z,100598.81
2022-11-03T07:13:42.070Z,100596.38
2022-11-03T07:16:25.868Z,100589.44
2022-11-03T07:18:52.996Z,100571.09
2022-11-03T07:21:34.633Z,100584.25
2022-11-03T07:24:13.322Z,100592.94
2022-11-03T07:26:40.057Z,100591.16
2022-11-03T07:29:12.760Z,100586.63
2022-11-03T07:31:39.455Z,100566.00
2022-11-03T07:34:14.215Z,100573.00
2022-11-03T07:36:41.496Z,100563.41
2022-11-03T07:39:15.952Z,100563.53
2022-11-03T07:41:42.894Z,100564.44
2022-11-03T07:44:15.909Z,100574.94
2022-11-03T07:46:43.919Z,100561.09
2022-11-03T07:49:26.772Z,100571.56
2022-11-03T07:51:55.145Z,100568.13
2022-11-03T07:54:26.956Z,100565.66
2022-11-03T07:56:59.821Z,100549.97
2022-11-03T07:59:33.086Z,100546.63
2022-11-03T08:02:00.567Z,100535.28
2022-11-03T08:04:33.715Z,100523.19
2022-11-03T08:07:00.524Z,100525.00
2022-11-03T08:09:27.367Z,100508.38
2022-11-03T08:11:54.299Z,100518.94
2022-11-03T08:14:20.949Z,100506.69
2022-11-03T08:16:47.892Z,100516.38
2022-11-03T08:19:14.617Z,100517.28
2022-11-03T08:21:41.212Z,100507.81
2022-11-03T08:24:07.877Z,100498.22
2022-11-03T08:26:34.624Z,100484.25
2022-11-03T08:29:01.282Z,100481.66
2022-11-03T08:31:27.888Z,100478.13
2022-11-03T08:33:54.714Z,100472.94
2022-11-03T08:36:22.048Z,100501.66
2022-11-03T08:38:48.797Z,100498.16
2022-11-03T08:41:15.393Z,100486.03
2022-11-03T08:43:41.998Z,100471.31
2022-11-03T08:46:18.035Z,100477.38
2022-11-03T08:48:46.154Z,100464.38
2022-11-03T08:51:14.576Z,100462.66
2022-11-03T08:53:45.135Z,100456.50
2022-11-03T08:56:15.104Z,100456.56
2022-11-03T08:58:47.034Z,100460.94
2022-11-03T09:01:14.958Z,100457.34
2022-11-03T09:03:42.253Z,100468.69
2022-11-03T09:06:09.252Z,100460.91
2022-11-03T09:11:22.968Z,100452.22
2022-11-03T09:13:49.601Z,100449.59
2022-11-03T09:16:17.236Z,100448.75
2022-11-03T09:18:44.016Z,100440.03
2022-11-03T09:21:10.588Z,100451.34
2022-11-03T09:23:37.557Z,100452.16
2022-11-03T09:26:06.686Z,100436.56
2022-11-03T09:28:33.277Z,100444.38
2022-11-03T09:31:01.201Z,100437.41
2022-11-03T09:33:27.775Z,100427.00
2022-11-03T09:35:54.352Z,100424.38
2022-11-03T09:38:20.934Z,100425.19
2022-11-03T09:43:19.577Z,100422.59
2022-11-03T09:45:46.367Z,100414.78
2022-11-03T09:48:13.939Z,100405.19
2022-11-03T09:50:41.173Z,100402.56
2022-11-03T09:53:12.141Z,100399.97
2022-11-03T09:55:39.597Z,100389.50
2022-11-03T09:58:14.965Z,100378.97
2022-11-03T10:00:41.720Z,100379.84
2022-11-03T10:03:20.898Z,100380.66
2022-11-03T10:05:50.167Z,100376.25
2022-11-03T10:08:27.669Z,100366.69
2022-11-03T10:10:55.117Z,100368.41
2022-11-03T10:13:41.497Z,100369.19
2022-11-03T10:16:10.809Z,100362.31
2022-11-03T10:18:38.033Z,100353.53
2022-11-03T10:21:16.433Z,100349.97
2022-11-03T10:23:43.040Z,100351.66
2022-11-03T10:26:17.674Z,100350.78
2022-11-03T10:29:08.857Z,100342.03
2022-11-03T10:31:40.736Z,100338.47
2022-11-03T10:34:43.216Z,100329.75
2022-11-03T10:37:24.255Z,100316.75
2022-11-03T10:39:55.990Z,100314.91
2022-11-03T10:42:28.142Z,100315.59
2022-11-03T10:45:19.773Z,100308.59
2022-11-03T10:48:01.256Z,100296.41
2022-11-03T10:50:28.337Z,100296.38
2022-11-03T10:52:55.290Z,100285.06
2022-11-03T10:55:25.244Z,100286.66
2022-11-03T10:57:56.434Z,100270.00
2022-11-03T11:00:24.276Z,100277.91
2022-11-03T11:02:58.927Z,100268.06
2022-11-03T11:05:25.740Z,100264.81
2022-11-03T11:07:54.254Z,100266.63
2022-11-03T11:10:29.214Z,100260.50
2022-11-03T11:13:15.533Z,100254.38
2022-11-03T11:15:47.548Z,100257.34
2022-11-03T11:18:29.634Z,100240.50
2022-11-03T11:21:17.685Z,100235.94
2022-11-03T11:23:46.282Z,100223.31
2022-11-03T11:26:25.921Z,100217.91
2022-11-03T11:29:17.621Z,100206.66
2022-11-03T11:31:47.665Z,100210.22
2022-11-03T11:34:18.183Z,100198.06
2022-11-03T11:36:50.280Z,100195.28
2022-11-03T11:39:22.945Z,100188.19
2022-11-03T11:42:09.151Z,100184.91
2022-11-03T11:44:52.861Z,100175.41
2022-11-03T11:47:31.615Z,100162.81
2022-11-03T11:50:07.506Z,100149.78
2022-11-03T11:52:52.394Z,100128.63
2022-11-03T11:55:25.006Z,100122.69
2022-11-03T11:57:52.910Z,100128.91
2022-11-03T12:00:22.625Z,100134.69
2022-11-03T12:02:50.195Z,100125.44
2022-11-03T12:05:27.701Z,100119.19
2022-11-03T12:07:55.437Z,100110.34
2022-11-03T12:10:26.556Z,100109.56
2022-11-03T12:12:54.977Z,100111.09
2022-11-03T12:15:54.187Z,100100.97
2022-11-03T12:18:38.848Z,100098.38
2022-11-03T12:21:09.687Z,100092.16
2022-11-03T12:23:37.364Z,100086.13
2022-11-03T12:26:05.351Z,100086.03
2022-11-03T12:28:36.212Z,100087.88
2022-11-03T12:31:03.207Z,100071.19
2022-11-03T12:33:30.216Z,100067.63
2022-11-03T12:35:57.321Z,100071.06
2022-11-03T12:38:25.009Z,100069.59
2022-11-03T12:40:53.140Z,100067.59
2022-11-03T12:43:19.976Z,100061.78
2022-11-03T12:45:46.683Z,100046.72
2022-11-03T12:48:13.265Z,100043.84
2022-11-03T12:50:40.663Z,100035.16
2022-11-03T12:53:07.966Z,100020.38
2022-11-03T12:55:36.430Z,100046.28
2022-11-03T12:58:04.863Z,100042.13
2022-11-03T13:00:31.854Z,100046.81
2022-11-03T13:02:58.452Z,100039.88
2022-11-03T13:05:25.939Z,100040.91
2022-11-03T13:07:52.961Z,100037.47
2022-11-03T13:10:19.626Z,100023.97
2022-11-03T13:12:46.765Z,100013.28
2022-11-03T13:15:13.656Z,100006.72
2022-11-03T13:18:06.978Z,99992.91
2022-11-03T13:20:27.411Z,99982.59
2022-11-03T13:22:54.085Z,99970.28
2022-11-03T13:25:20.856Z,99980.72
2022-11-03T13:27:48.936Z,99976.00
2022-11-03T13:30:15.525Z,99968.47
2022-11-03T13:32:42.182Z,99950.28
2022-11-03T13:35:13.668Z,99953.81
2022-11-03T13:37:40.721Z,99934.81
2022-11-03T13:40:08.228Z,99929.34
2022-11-03T13:42:34.801Z,99918.59
2022-11-03T13:45:01.487Z,99912.31
2022-11-03T13:47:44.382Z,99911.34
2022-11-03T13:50:15.338Z,99919.13
2022-11-03T13:52:42.246Z,99924.34
2022-11-03T14:00:44.209Z,99879.34
2022-11-03T14:05:57.336Z,99871.41
2022-11-03T14:08:23.871Z,99878.09
2022-11-03T14:10:50.472Z,99875.41
2022-11-03T14:13:17.038Z,99861.25
2022-11-03T14:15:43.668Z,99845.28
2022-11-03T14:18:10.216Z,99840.41
2022-11-03T14:20:37.464Z,99827.97
2022-11-03T14:23:04.371Z,99828.56
2022-11-03T14:25:31.230Z,99825.06
2022-11-03T14:27:57.917Z,99820.44
2022-11-03T14:30:24.637Z,99814.41
2022-11-03T14:32:55.393Z,99809.94
2022-11-03T14:35:24.902Z,99804.69
2022-11-03T14:37:51.809Z,99790.91
2022-11-03T14:40:37.332Z,99789.25
2022-11-03T14:43:04.106Z,99780.81
2022-11-03T14:45:30.756Z,99773.75
2022-11-03T14:47:57.428Z,99776.03
2022-11-03T14:50:23.971Z,99784.00
2022-11-03T14:52:50.537Z,99765.16
2022-11-03T14:55:17.228Z,99761.53
2022-11-03T14:57:43.790Z,99769.50
2022-11-03T15:00:11.310Z,99760.78
2022-11-03T15:02:38.527Z,99752.66
2022-11-03T15:05:05.379Z,99749.19
2022-11-03T15:07:32.478Z,99744.34
2022-11-03T15:09:59.105Z,99734.41
2022-11-03T15:12:26.560Z,99731.59
2022-11-03T15:14:53.195Z,99724.53
2022-11-03T15:17:19.769Z,99736.16
2022-11-03T15:19:46.335Z,99729.94
2022-11-03T15:22:12.828Z,99727.44
2022-11-03T15:27:26.217Z,99722.06
2022-11-03T15:29:52.933Z,99709.09
2022-11-03T15:32:19.632Z,99701.84
2022-11-03T15:34:46.274Z,99697.59
2022-11-03T15:37:12.794Z,99694.47
2022-11-03T15:39:39.433Z,99687.47
2022-11-03T15:42:06.073Z,99665.91
2022-11-03T15:44:32.644Z,99672.50
2022-11-03T15:46:59.248Z,99664.75
2022-11-03T15:49:26.019Z,99663.28
2022-11-03T15:51:52.604Z,99658.09
2022-11-03T15:54:19.190Z,99667.16
2022-11-03T15:56:45.817Z,99662.06
2022-11-03T15:59:12.379Z,99670.75
2022-11-03T16:01:39.076Z,99664.75
2022-11-03T16:04:05.799Z,99647.09
2022-11-03T16:07:01.827Z,99645.44
2022-11-03T16:09:19.377Z,99640.84
2022-11-03T16:11:45.941Z,99639.38
2022-11-03T16:14:13.274Z,99633.84
2022-11-03T16:16:39.906Z,99632.63
2022-11-03T16:19:06.451Z,99619.63
2022-11-03T16:21:33.022Z,99618.63
2022-11-03T16:23:59.558Z,99610.84
2022-11-03T16:26:26.119Z,99620.13
2022-11-03T16:28:52.720Z,99612.66
2022-11-03T16:31:19.337Z,99608.03
2022-11-03T16:33:45.944Z,99611.75
2022-11-03T16:36:12.499Z,99635.13
2022-11-03T16:38:39.038Z,99643.63
2022-11-03T16:41:05.653Z,99645.34
2022-11-03T16:43:32.296Z,99635.00
2022-11-03T16:45:58.964Z,99635.13
2022-11-03T16:48:25.944Z,99633.06
2022-11-03T16:50:55.880Z,99623.16
2022-11-03T16:53:24.576Z,99614.13
2022-11-03T16:55:51.165Z,99602.72
2022-11-03T16:58:17.738Z,99605.63
2022-11-03T17:00:45.014Z,99594.78
2022-11-03T17:03:11.811Z,99606.63
2022-11-03T17:05:38.371Z,99598.84
2022-11-03T17:08:05.366Z,99586.63
2022-11-03T17:10:31.976Z,99581.38
2022-11-03T17:12:58.978Z,99578.97
2022-11-03T17:15:25.541Z,99581.56
2022-11-03T17:17:52.103Z,99575.47
2022-11-03T17:20:18.800Z,99573.06
2022-11-03T17:22:45.492Z,99577.59
2022-11-03T17:25:12.246Z,99576.56
2022-11-03T17:27:46.043Z,99573.72
2022-11-03T17:30:18.336Z,99560.66
2022-11-03T17:32:45.027Z,99572.25
2022-11-03T17:35:20.794Z,99575.03
2022-11-03T17:37:51.062Z,99565.59
2022-11-03T17:40:25.091Z,99566.31
2022-11-03T17:42:52.678Z,99560.22
2022-11-03T17:45:21.543Z,99553.25
2022-11-03T17:47:49.706Z,99561.84
2022-11-03T17:50:19.025Z,99555.31
2022-11-03T17:52:47.363Z,99555.41
2022-11-03T17:55:31.694Z,99563.09
2022-11-03T17:58:01.551Z,99555.47
2022-11-03T18:00:28.780Z,99558.94
2022-11-03T18:02:56.296Z,99555.44
2022-11-03T18:05:29.949Z,99565.81
2022-11-03T18:07:58.150Z,99563.25
2022-11-03T18:10:38.579Z,99562.56
2022-11-03T18:13:16.218Z,99558.28
2022-11-03T18:15:49.638Z,99551.19
2022-11-03T18:18:32.472Z,99546.94
2022-11-03T18:20:59.295Z,99537.47
2022-11-03T18:23:31.557Z,99537.66
2022-11-03T18:26:00.548Z,99534.09
2022-11-03T18:28:27.638Z,99522.91
2022-11-03T18:30:56.372Z,99523.75
2022-11-03T18:33:35.720Z,99516.63
2022-11-03T18:36:06.158Z,99515.91
2022-11-03T18:38:36.394Z,99493.50
2022-11-03T18:41:22.960Z,99493.31
2022-11-03T18:43:49.585Z,99483.06
2022-11-03T18:46:16.202Z,99473.69
2022-11-03T18:48:42.738Z,99487.69
2022-11-03T18:51:09.925Z,99470.38
2022-11-03T18:53:36.534Z,99473.72
2022-11-03T18:56:03.167Z,99472.03
2022-11-03T18:58:29.951Z,99477.22
2022-11-03T19:00:56.574Z,99471.94
2022-11-03T19:03:24.085Z,99457.91
2022-11-03T19:05:52.740Z,99452.06
2022-11-03T19:08:22.605Z,99453.72
2022-11-03T19:10:50.435Z,99439.16
2022-11-03T19:13:25.091Z,99446.69
2022-11-03T19:15:51.641Z,99440.88
2022-11-03T19:18:18.374Z,99418.25
2022-11-03T19:20:44.903Z,99424.13
2022-11-03T19:23:12.485Z,99421.72
2022-11-03T19:25:43.348Z,99431.25
2022-11-03T19:28:15.674Z,99420.81
2022-11-03T19:30:43.702Z,99421.66
2022-11-03T19:33:19.764Z,99400.09
2022-11-03T19:35:47.220Z,99382.81
2022-11-03T19:38:16.040Z,99400.81
2022-11-03T19:41:03.416Z,99400.19
2022-11-03T19:43:34.530Z,99397.72
2022-11-03T19:46:02.369Z,99391.59
2022-11-03T19:48:33.240Z,99397.91
2022-11-03T19:50:59.884Z,99394.38
2022-11-03T19:53:28.915Z,99393.22
2022-11-03T19:55:56.376Z,99386.28
2022-11-03T19:58:25.488Z,99394.94
2022-11-03T20:00:53.568Z,99373.38
2022-11-03T20:03:22.015Z,99394.03
2022-11-03T20:05:51.857Z,99385.22
2022-11-03T20:08:22.102Z,99381.00
2022-11-03T20:10:49.259Z,99380.03
2022-11-03T20:13:19.175Z,99379.97
2022-11-03T20:15:45.752Z,99381.88
2022-11-03T20:18:13.881Z,99381.84
2022-11-03T20:20:42.279Z,99385.34
2022-11-03T20:23:20.118Z,99394.91
2022-11-03T20:25:47.805Z,99384.53
2022-11-03T20:28:22.183Z,99390.78
2022-11-03T20:30:49.334Z,99385.56
2022-11-03T20:33:18.006Z,99396.72
2022-11-03T20:35:45.695Z,99395.84
2022-11-03T20:38:14.730Z,99396.66
2022-11-03T20:40:42.013Z,99393.91
2022-11-03T20:43:20.851Z,99393.19
2022-11-03T20:45:47.397Z,99389.97
2022-11-03T20:48:13.984Z,99399.34
2022-11-03T20:50:40.950Z,99396.84
2022-11-03T20:53:22.821Z,99394.41
2022-11-03T20:55:49.411Z,99383.84
2022-11-03T20:58:18.341Z,99395.06
2022-11-03T21:00:47.465Z,99392.34
2022-11-03T21:03:57.684Z,99393.44
2022-11-03T21:06:16.840Z,99389.88
2022-11-03T21:08:45.132Z,99384.47
2022-11-03T21:11:24.172Z,99382.78
2022-11-03T21:13:51.936Z,99377.69
2022-11-03T21:16:37.552Z,99380.13
2022-11-03T21:19:40.690Z,99365.34
2022-11-03T21:22:52.415Z,99373.19
2022-11-03T21:25:22.245Z,99382.63
2022-11-03T21:27:51.771Z,99372.19
2022-11-03T21:30:19.247Z,99369.53
2022-11-03T21:32:48.221Z,99368.63
2022-11-03T21:35:18.043Z,99343.44
2022-11-03T21:37:45.161Z,99360.66
2022-11-03T21:40:11.944Z,99361.69
2022-11-03T21:42:57.404Z,99367.78
2022-11-03T21:45:24.111Z,99364.69
2022-11-03T21:48:13.490Z,99370.63
2022-11-03T21:50:41.450Z,99353.25
2022-11-03T21:53:08.441Z,99350.63
2022-11-03T21:55:35.761Z,99346.28
2022-11-03T21:58:03.001Z,99350.75
2022-11-03T22:00:29.842Z,99348.88
2022-11-03T22:02:56.604Z,99332.34
2022-11-03T22:05:23.323Z,99358.53
2022-11-03T22:07:49.994Z,99353.97
2022-11-03T22:10:17.859Z,99351.72
2022-11-03T22:12:44.571Z,99353.25
2022-11-03T22:15:29.872Z,99319.31
2022-11-03T22:18:04.217Z,99323.63
2022-11-03T22:20:49.434Z,99317.50
2022-11-03T22:23:34.794Z,99314.97
2022-11-03T22:26:20.456Z,99324.75
2022-11-03T22:29:07.106Z,99322.06
2022-11-03T22:31:43.088Z,99322.81
2022-11-03T22:34:28.704Z,99321.19
2022-11-03T22:36:55.468Z,99324.47
2022-11-03T22:39:40.603Z,99332.41
2022-11-03T22:42:25.907Z,99319.56
2022-11-03T22:45:11.108Z,99326.56
2022-11-03T22:47:37.637Z,99329.25
2022-11-03T22:50:04.717Z,99318.75
2022-11-03T22:52:31.261Z,99329.13
2022-11-03T22:54:57.860Z,99330.16
2022-11-03T22:57:24.447Z,99325.81
2022-11-03T22:59:51.219Z,99318.22
2022-11-03T23:02:17.803Z,99338.19
2022-11-03T23:04:46.766Z,99332.94
2022-11-03T23:07:13.328Z,99332.00
2022-11-03T23:09:39.907Z,99338.97
2022-11-03T23:12:06.731Z,99333.63
2022-11-03T23:14:51.924Z,99329.38
2022-11-03T23:17:18.688Z,99348.53
2022-11-03T23:20:03.900Z,99342.22
2022-11-03T23:22:30.462Z,99329.88
2022-11-03T23:25:00.001Z,99322.06
2022-11-03T23:27:26.593Z,99316.16
2022-11-03T23:29:53.134Z,99328.44
2022-11-03T23:32:19.706Z,99318.78
2022-11-03T23:34:46.301Z,99307.53
2022-11-03T23:37:12.910Z,99322.34
2022-11-03T23:39:39.642Z,99325.06
2022-11-03T23:42:06.497Z,99325.78
2022-11-03T23:44:53.028Z,99329.88
2022-11-03T23:47:38.397Z,99319.50
2022-11-03T23:50:05.357Z,99317.84
2022-11-03T23:52:31.976Z,99323.91
2022-11-03T23:54:58.510Z,99320.38
2022-11-03T23:57:43.598Z,99323.72
